»·PEaware :: N360BG KVNY-KMRY

N360BG :: KVNY-KMRY

FLIGHT INFORMATION

Flight Status: Arrived
Operator: Privately registered:
United States
More flights under this callsign
Pilot: Brandon G. (13)
Aircraft: BEECH AIRCRAFT A90-E90 KING AIR
(BE9L)
More flights by this aircraft type
Origin: KVNY Van Nuys
United States
Destination: KMRY Monterey Peninsula
United States
More flights between these airports :: More routes between these airports
Route: CANOG2 FIM RZS PRB WIGGL
File this flight plan on PilotEdge
Remarks:
Altitude:
(Current/Filed)
26,000ft
Speed:
(Current/Filed)
425kts
Departed: 08-Dec-17 06:22 PM
Arrived: 08-Dec-17 07:34 PM
Distance/Time
Traveled:
218nm/1:12
Distance/Time
To Go:
Arrived

Flight Plot

Page will automatically refresh every two minutes.

Flight plan parsing failed; only flown route is shown


Map Options




Map Legend


Flown Route
Filed Route
Departure Airport
Arrival Airport
Navaid (VOR, NDB)
Fix

Horizontal Profiles

Position Reports

Time Latitude Longitude Heading Altitude Ground
Speed
08-Dec-17 18:06 34.205462 -118.487616 271 768ft 0kts
08-Dec-17 18:07 34.205462 -118.487616 271 768ft 0kts
08-Dec-17 18:08 34.205462 -118.487616 271 768ft 0kts
08-Dec-17 18:09 34.205462 -118.487616 271 768ft 0kts
08-Dec-17 18:10 34.205462 -118.487616 271 768ft 0kts
08-Dec-17 18:11 34.205462 -118.487616 271 768ft 0kts
08-Dec-17 18:12 34.205462 -118.487616 271 768ft 0kts
08-Dec-17 18:13 34.205462 -118.487616 271 768ft 0kts
08-Dec-17 18:14 34.205462 -118.487616 271 768ft 0kts
08-Dec-17 18:15 34.205462 -118.487616 271 768ft 0kts
08-Dec-17 18:16 34.205462 -118.487616 271 768ft 0kts
08-Dec-17 18:17 34.205462 -118.487616 271 768ft 0kts
08-Dec-17 18:18 34.205462 -118.487617 271 768ft 0kts
08-Dec-17 18:19 34.205466 -118.487637 281 768ft 0kts
08-Dec-17 18:20 34.205636 -118.487831 271 769ft 0kts
08-Dec-17 18:21 34.205635 -118.487901 270 769ft 2kts
08-Dec-17 18:22 34.202565 -118.488559 185 759ft 18kts
08-Dec-17 18:23 34.198025 -118.488419 178 750ft 16kts
08-Dec-17 18:24 34.197266 -118.488374 207 749ft 0kts
08-Dec-17 18:25 34.197266 -118.488374 207 749ft 0kts
08-Dec-17 18:26 34.197177 -118.488429 209 749ft 0kts
08-Dec-17 18:27 34.200896 -118.489510 352 757ft 68kts
08-Dec-17 18:28 34.223716 -118.509207 269 1786ft 144kts
08-Dec-17 18:29 34.220719 -118.558860 265 3292ft 158kts
08-Dec-17 18:30 34.216211 -118.611942 265 5083ft 162kts
08-Dec-17 18:31 34.222877 -118.662781 305 6612ft 163kts
08-Dec-17 18:32 34.249170 -118.706560 309 8189ft 160kts
08-Dec-17 18:33 34.273418 -118.745959 311 10077ft 138kts
08-Dec-17 18:34 34.297949 -118.785752 311 11405ft 154kts
08-Dec-17 18:35 34.323734 -118.827677 312 12772ft 157kts
08-Dec-17 18:36 34.349889 -118.870241 312 14048ft 159kts
08-Dec-17 18:37 34.363796 -118.922036 287 15203ft 167kts
08-Dec-17 18:38 34.373475 -118.977104 288 16280ft 168kts
08-Dec-17 18:39 34.383151 -119.032501 288 17255ft 168kts
08-Dec-17 18:40 34.393128 -119.089563 287 17601ft 199kts
08-Dec-17 18:41 34.405645 -119.161737 286 16891ft 235kts
08-Dec-17 18:42 34.419558 -119.242270 286 15999ft 243kts
08-Dec-17 18:43 34.432816 -119.319375 286 15991ft 227kts
08-Dec-17 18:44 34.445473 -119.393173 286 15995ft 223kts
08-Dec-17 18:45 34.457987 -119.466404 286 15998ft 222kts
08-Dec-17 18:46 34.470422 -119.539451 286 16001ft 222kts
08-Dec-17 18:47 34.482889 -119.612971 286 16001ft 222kts
08-Dec-17 18:48 34.495167 -119.685655 285 15999ft 222kts
08-Dec-17 18:49 34.507624 -119.759076 290 15995ft 221kts
08-Dec-17 18:50 34.552380 -119.801477 332 16003ft 207kts
08-Dec-17 18:51 34.600802 -119.837102 333 16007ft 207kts
08-Dec-17 18:52 34.649952 -119.872855 333 16011ft 207kts
08-Dec-17 18:53 34.699145 -119.908643 333 16015ft 207kts
08-Dec-17 18:54 34.748263 -119.944419 333 16020ft 207kts
08-Dec-17 18:55 34.797483 -119.980318 333 16024ft 207kts
08-Dec-17 18:56 34.846559 -120.016164 333 16026ft 207kts
08-Dec-17 18:57 34.895682 -120.052081 333 16028ft 206kts
08-Dec-17 18:58 34.944618 -120.087907 331 16028ft 204kts
08-Dec-17 18:59 34.993108 -120.123478 330 16030ft 203kts
08-Dec-17 19:00 35.041293 -120.158874 329 16031ft 203kts
08-Dec-17 19:01 35.089867 -120.194623 329 16033ft 204kts
08-Dec-17 19:02 35.137443 -120.229667 329 16037ft 204kts
08-Dec-17 19:03 35.186100 -120.265555 329 16035ft 205kts
08-Dec-17 19:04 35.234692 -120.301447 329 16030ft 205kts
08-Dec-17 19:05 35.283553 -120.337589 329 16024ft 205kts
08-Dec-17 19:06 35.332247 -120.373659 329 16020ft 205kts
08-Dec-17 19:07 35.380911 -120.409796 330 16036ft 205kts
08-Dec-17 19:08 35.429993 -120.446226 330 16044ft 207kts
08-Dec-17 19:10 35.479170 -120.482805 330 15997ft 209kts
08-Dec-17 19:11 35.528592 -120.519626 330 15999ft 208kts
08-Dec-17 19:12 35.577805 -120.556347 330 15999ft 208kts
08-Dec-17 19:13 35.627132 -120.593205 330 15999ft 208kts
08-Dec-17 19:14 35.675949 -120.630936 324 16001ft 208kts
08-Dec-17 19:15 35.721297 -120.674495 323 15999ft 208kts
08-Dec-17 19:16 35.766653 -120.718481 323 15999ft 208kts
08-Dec-17 19:17 35.812175 -120.762729 323 15999ft 208kts
08-Dec-17 19:18 35.857645 -120.806997 323 15999ft 208kts
08-Dec-17 19:19 35.902939 -120.851159 323 15998ft 208kts
08-Dec-17 19:20 35.948155 -120.895313 323 16047ft 206kts
08-Dec-17 19:21 35.994319 -120.940447 323 15711ft 219kts
08-Dec-17 19:22 36.042892 -120.988006 322 15109ft 226kts
08-Dec-17 19:23 36.091992 -121.036174 322 14505ft 227kts
08-Dec-17 19:24 36.138560 -121.081935 322 13944ft 228kts
08-Dec-17 19:25 36.188209 -121.130804 321 13349ft 229kts
08-Dec-17 19:26 36.238135 -121.180052 321 12750ft 230kts
08-Dec-17 19:27 36.287959 -121.229236 321 12103ft 233kts
08-Dec-17 19:28 36.339957 -121.280661 321 10899ft 245kts
08-Dec-17 19:29 36.393282 -121.333501 321 9631ft 244kts
08-Dec-17 19:30 36.442441 -121.388633 313 8818ft 233kts
08-Dec-17 19:31 36.481770 -121.439493 313 8285ft 185kts
08-Dec-17 19:32 36.518810 -121.487449 313 6212ft 219kts
08-Dec-17 19:33 36.557454 -121.537592 312 5175ft 171kts
08-Dec-17 19:34 36.570974 -121.594764 246 5186ft 207kts
08-Dec-17 19:35 36.566636 -121.666071 274 3983ft 200kts
08-Dec-17 19:36 36.572253 -121.730523 274 2596ft 180kts
08-Dec-17 19:37 36.576767 -121.783746 275 1191ft 132kts
08-Dec-17 19:38 36.579403 -121.821295 284 631ft 98kts
08-Dec-17 19:39 36.587949 -121.847197 295 181ft 53kts
08-Dec-17 19:40 36.587863 -121.851095 61 177ft 0kts
08-Dec-17 19:41 36.587863 -121.851095 61 177ft 0kts
08-Dec-17 19:42 36.587863 -121.851095 61 177ft 0kts
08-Dec-17 19:43 36.587863 -121.851095 61 177ft 0kts
08-Dec-17 19:44 36.587863 -121.851095 61 177ft 0kts
08-Dec-17 19:45 36.587863 -121.851095 61 177ft 0kts
08-Dec-17 19:45 36.587863 -121.851095 61 177ft 0kts
08-Dec-17 19:47 36.587863 -121.851095 61 177ft 0kts
08-Dec-17 19:47 36.587863 -121.851095 61 177ft 0kts
08-Dec-17 19:48 36.587863 -121.851095 61 177ft 0kts
08-Dec-17 19:50 36.587863 -121.851095 61 177ft 0kts
08-Dec-17 19:50 36.587863 -121.851095 61 177ft 0kts
08-Dec-17 19:51 36.587863 -121.851095 61 177ft 0kts

Navigation Log

Ident Type
Flight plan parsing failed, navigation log unavailable